Time;durP1;ratioP1;P1;durP2;ratioP2;P2;SDS_P1;SDS_P2;PMS_P1;PMS_P2;Temp;Humidity;BMP_temperature;BMP_pressure;BME280_temperature;BME280_humidity;BME280_pressure;Samples;Min_cycle;Max_cycle;Signal;HPM_P1;HPM_P2
2021/05/21 00:01:02;;;;;;;2.70;1.20;;;17.20;99.90;;;;;;5069206;28;20693;-69
2021/05/21 00:03:28;;;;;;;1.00;0.90;;;17.20;99.90;;;;;;5068545;28;20194;-69
2021/05/21 00:05:55;;;;;;;1.23;0.93;;;17.20;99.90;;;;;;5068738;28;20202;-69
2021/05/21 00:08:21;;;;;;;1.20;1.02;;;17.10;99.90;;;;;;5069821;28;20197;-69
2021/05/21 00:10:47;;;;;;;1.30;1.00;;;17.20;99.90;;;;;;5068635;28;20206;-69
2021/05/21 00:13:13;;;;;;;0.98;0.85;;;17.10;99.90;;;;;;5070374;28;20201;-69
2021/05/21 00:15:40;;;;;;;1.42;1.23;;;17.10;99.90;;;;;;5067878;28;20287;-69
2021/05/21 00:18:06;;;;;;;1.15;1.02;;;17.10;99.90;;;;;;5070020;28;20653;-69
2021/05/21 00:20:33;;;;;;;1.85;0.90;;;17.10;99.90;;;;;;5068032;28;20226;-69
2021/05/21 00:22:59;;;;;;;1.33;1.20;;;17.10;99.90;;;;;;5050886;28;20646;-69
2021/05/21 00:25:25;;;;;;;1.50;1.40;;;17.10;99.90;;;;;;5058503;28;20198;-69
2021/05/21 00:27:51;;;;;;;2.15;1.20;;;17.10;99.90;;;;;;5050298;28;20206;-70
2021/05/21 00:30:18;;;;;;;2.28;1.08;;;17.10;99.90;;;;;;5066073;28;20240;-71
2021/05/21 00:32:45;;;;;;;1.20;0.90;;;17.00;99.90;;;;;;5071276;28;20194;-70
2021/05/21 00:35:12;;;;;;;3.15;1.40;;;17.00;99.90;;;;;;5063599;28;20206;-70
2021/05/21 00:37:38;;;;;;;1.73;1.17;;;17.00;99.90;;;;;;5053768;28;20195;-70
2021/05/21 00:40:05;;;;;;;1.23;1.10;;;17.00;99.90;;;;;;5050952;28;20194;-70
2021/05/21 00:42:32;;;;;;;1.17;0.90;;;17.00;99.90;;;;;;5050874;28;20594;-70
2021/05/21 00:44:59;;;;;;;1.10;1.00;;;17.00;99.90;;;;;;5067219;28;20190;-70
2021/05/21 00:47:27;;;;;;;1.30;0.90;;;17.00;99.90;;;;;;5071014;28;20198;-70
2021/05/21 00:49:54;;;;;;;3.95;0.98;;;17.00;99.90;;;;;;5052943;28;20195;-69
2021/05/21 00:52:22;;;;;;;1.63;0.90;;;16.90;99.90;;;;;;5066588;28;20551;-70
2021/05/21 00:54:49;;;;;;;1.30;0.90;;;16.90;99.90;;;;;;5054097;28;20225;-69
2021/05/21 00:57:15;;;;;;;1.33;0.93;;;17.00;99.90;;;;;;5056536;28;20195;-70
2021/05/21 00:59:41;;;;;;;1.58;1.48;;;16.90;99.90;;;;;;5050698;28;20199;-69
2021/05/21 01:02:08;;;;;;;1.00;0.90;;;16.90;99.90;;;;;;5048638;28;20199;-69
2021/05/21 01:04:35;;;;;;;1.10;1.00;;;16.90;99.90;;;;;;5051552;28;20524;-71
2021/05/21 01:07:03;;;;;;;1.20;0.93;;;16.80;99.90;;;;;;5064200;28;20191;-70
2021/05/21 01:09:29;;;;;;;3.17;1.10;;;16.80;99.90;;;;;;5050430;28;20206;-70
2021/05/21 01:11:55;;;;;;;1.98;1.08;;;16.90;99.90;;;;;;5053536;28;20697;-70
2021/05/21 01:14:21;;;;;;;1.10;0.90;;;16.80;99.90;;;;;;5068980;28;20210;-70
2021/05/21 01:16:48;;;;;;;1.30;0.77;;;16.80;99.90;;;;;;5066638;28;20597;-70
2021/05/21 01:19:14;;;;;;;1.33;1.13;;;16.80;99.90;;;;;;5056557;28;20198;-70
2021/05/21 01:21:41;;;;;;;1.65;0.98;;;16.80;99.90;;;;;;5073780;28;20221;-70
2021/05/21 01:24:09;;;;;;;1.00;0.88;;;16.80;99.90;;;;;;5071891;28;20198;-70
2021/05/21 01:26:36;;;;;;;1.60;1.23;;;16.80;99.90;;;;;;5073807;28;20202;-70
2021/05/21 01:29:03;;;;;;;1.33;0.90;;;16.70;99.90;;;;;;5056895;28;20219;-70
2021/05/21 01:31:30;;;;;;;1.20;1.10;;;16.70;99.90;;;;;;5074176;28;20228;-70
2021/05/21 01:33:56;;;;;;;1.65;0.80;;;16.70;99.90;;;;;;5073448;28;20217;-70
2021/05/21 01:36:22;;;;;;;1.25;1.10;;;16.70;99.90;;;;;;5067388;28;20203;-70
2021/05/21 01:38:57;;;;;;;1.15;1.00;;;16.70;99.90;;;;;;5054099;28;20211;-71
2021/05/21 01:41:24;;;;;;;2.45;1.10;;;16.70;99.90;;;;;;5056246;28;20590;-71
2021/05/21 01:43:51;;;;;;;2.65;1.52;;;16.70;99.90;;;;;;5054018;28;20237;-71
2021/05/21 01:46:17;;;;;;;1.60;1.02;;;16.70;99.90;;;;;;5068336;28;20202;-71
2021/05/21 01:48:45;;;;;;;1.95;0.90;;;16.70;99.90;;;;;;5071970;28;20626;-71
2021/05/21 01:51:12;;;;;;;1.40;1.05;;;16.70;99.90;;;;;;5070725;28;20190;-71
2021/05/21 01:53:38;;;;;;;1.40;1.00;;;16.60;99.90;;;;;;5073503;28;20326;-72
2021/05/21 01:56:06;;;;;;;1.35;1.02;;;16.60;99.90;;;;;;5073548;28;20202;-72
2021/05/21 01:58:32;;;;;;;1.80;0.90;;;16.60;99.90;;;;;;5072081;28;20625;-69
2021/05/21 02:00:58;;;;;;;1.23;1.10;;;16.60;99.90;;;;;;5073110;28;20193;-71
2021/05/21 02:03:27;;;;;;;2.05;0.90;;;16.60;99.90;;;;;;5073272;28;20194;-71
2021/05/21 02:05:53;;;;;;;1.00;0.90;;;16.60;99.90;;;;;;5072785;28;20198;-71
2021/05/21 02:08:23;;;;;;;1.02;0.88;;;16.50;99.90;;;;;;5071292;28;20543;-71
2021/05/21 02:10:49;;;;;;;2.28;1.33;;;16.50;99.90;;;;;;5059351;28;20190;-68
2021/05/21 02:13:16;;;;;;;1.00;0.90;;;16.50;99.90;;;;;;5066933;28;20218;-71
2021/05/21 02:15:42;;;;;;;1.02;0.93;;;16.50;99.90;;;;;;5053009;28;20222;-71
2021/05/21 02:18:08;;;;;;;1.25;1.05;;;16.50;99.90;;;;;;5053683;28;20288;-71
2021/05/21 02:20:35;;;;;;;1.20;1.00;;;16.50;99.90;;;;;;5058556;28;20227;-71
2021/05/21 02:23:02;;;;;;;1.00;0.80;;;16.50;99.90;;;;;;5068260;28;20277;-71
2021/05/21 02:25:29;;;;;;;1.25;1.00;;;16.40;99.90;;;;;;5061059;28;20194;-71
2021/05/21 02:27:55;;;;;;;1.20;1.00;;;16.40;99.90;;;;;;5071227;28;20213;-71
2021/05/21 02:30:22;;;;;;;1.10;1.00;;;16.40;99.90;;;;;;5052844;28;20199;-69
2021/05/21 02:32:48;;;;;;;1.05;0.95;;;16.40;99.90;;;;;;5066555;28;20198;-69
2021/05/21 02:35:15;;;;;;;1.17;1.05;;;16.40;99.90;;;;;;5072605;28;20222;-69
2021/05/21 02:37:42;;;;;;;1.10;0.98;;;16.40;99.90;;;;;;5062057;28;20203;-69
2021/05/21 02:40:10;;;;;;;1.23;0.90;;;16.40;99.90;;;;;;5061320;28;20190;-69
2021/05/21 02:42:37;;;;;;;1.20;1.08;;;16.40;99.90;;;;;;5067219;28;20202;-70
2021/05/21 02:45:04;;;;;;;3.40;1.10;;;16.40;99.90;;;;;;5072709;28;20351;-70
2021/05/21 02:47:32;;;;;;;1.05;0.80;;;16.30;99.90;;;;;;5065306;28;20198;-70
2021/05/21 02:49:59;;;;;;;1.10;0.82;;;16.30;99.90;;;;;;5072483;28;20279;-70
2021/05/21 02:52:26;;;;;;;1.45;0.90;;;16.30;99.90;;;;;;5072030;28;20243;-70
2021/05/21 02:54:52;;;;;;;1.40;0.95;;;16.30;99.90;;;;;;5070846;28;20221;-70
2021/05/21 02:57:21;;;;;;;1.30;1.00;;;16.30;99.90;;;;;;5071950;28;20206;-69
2021/05/21 02:59:47;;;;;;;2.03;1.10;;;16.30;99.90;;;;;;5061004;28;20229;-69
2021/05/21 03:02:14;;;;;;;1.30;1.00;;;16.30;99.90;;;;;;5052100;28;20198;-70
2021/05/21 03:04:41;;;;;;;2.17;1.00;;;16.20;99.90;;;;;;5054069;28;20195;-70
2021/05/21 03:07:07;;;;;;;1.02;0.90;;;16.20;99.90;;;;;;5069657;28;20646;-70
2021/05/21 03:09:33;;;;;;;1.40;0.90;;;16.20;99.90;;;;;;5071581;28;20193;-70
2021/05/21 03:11:59;;;;;;;1.30;0.90;;;16.20;99.90;;;;;;5072012;28;20190;-71
2021/05/21 03:14:25;;;;;;;4.18;0.98;;;16.20;99.90;;;;;;5064901;28;20210;-70
2021/05/21 03:16:51;;;;;;;1.60;1.08;;;16.20;99.90;;;;;;5052230;28;20199;-70
2021/05/21 03:19:18;;;;;;;0.90;0.80;;;16.20;99.90;;;;;;5070130;28;20217;-70
2021/05/21 03:21:45;;;;;;;1.20;0.95;;;16.20;99.90;;;;;;5071875;28;20283;-69
2021/05/21 03:24:11;;;;;;;1.20;0.80;;;16.20;99.90;;;;;;5070598;28;20590;-69
2021/05/21 03:26:37;;;;;;;1.00;0.82;;;16.20;99.90;;;;;;5071822;28;20260;-69
2021/05/21 03:29:03;;;;;;;1.30;0.90;;;16.10;99.90;;;;;;5071665;28;20198;-69
2021/05/21 03:31:30;;;;;;;1.50;1.08;;;16.10;99.90;;;;;;5065167;28;20202;-69
2021/05/21 03:33:56;;;;;;;1.10;0.88;;;16.10;99.90;;;;;;5071700;28;20542;-70
2021/05/21 03:36:22;;;;;;;1.38;1.00;;;16.10;99.90;;;;;;5069175;28;20198;-70
2021/05/21 03:38:49;;;;;;;1.20;0.90;;;16.10;99.90;;;;;;5065323;28;20665;-70
2021/05/21 03:41:15;;;;;;;2.85;0.90;;;16.10;99.90;;;;;;5070523;28;20225;-70
2021/05/21 03:43:41;;;;;;;2.75;1.20;;;16.10;99.90;;;;;;5071302;28;20407;-69
2021/05/21 03:46:08;;;;;;;2.15;1.10;;;16.10;99.90;;;;;;5071674;28;20197;-69
2021/05/21 03:48:34;;;;;;;1.33;0.90;;;16.10;99.90;;;;;;5062944;28;20202;-69
2021/05/21 03:51:00;;;;;;;1.10;0.95;;;16.00;99.90;;;;;;5059767;28;20201;-69
2021/05/21 03:53:26;;;;;;;1.20;1.00;;;16.00;99.90;;;;;;5071313;28;20198;-69
2021/05/21 03:55:53;;;;;;;1.00;0.80;;;16.00;99.90;;;;;;5071514;28;20350;-69
2021/05/21 03:58:19;;;;;;;1.15;1.00;;;16.00;99.90;;;;;;5061709;28;20225;-69
2021/05/21 04:00:46;;;;;;;1.00;0.80;;;16.00;99.90;;;;;;5071342;28;20206;-69
2021/05/21 04:03:12;;;;;;;1.55;0.80;;;16.00;99.90;;;;;;5071503;28;20198;-69
2021/05/21 04:05:38;;;;;;;1.10;1.00;;;16.00;99.90;;;;;;5067767;28;20194;-69
2021/05/21 04:08:05;;;;;;;1.55;0.95;;;16.00;99.90;;;;;;5057449;28;20888;-69
2021/05/21 04:10:32;;;;;;;1.10;0.90;;;16.00;99.90;;;;;;5068722;28;20198;-69
2021/05/21 04:12:59;;;;;;;1.52;1.00;;;16.00;99.90;;;;;;5070316;28;20198;-69
2021/05/21 04:15:25;;;;;;;1.50;1.10;;;16.00;99.90;;;;;;5062306;28;20213;-69
2021/05/21 04:17:51;;;;;;;1.00;0.80;;;16.00;99.90;;;;;;5070951;28;20191;-69
2021/05/21 04:20:18;;;;;;;1.00;0.90;;;16.00;99.90;;;;;;5070865;28;20232;-69
2021/05/21 04:22:44;;;;;;;1.00;0.80;;;15.90;99.90;;;;;;5071319;28;20224;-69
2021/05/21 04:25:11;;;;;;;2.13;1.02;;;15.90;99.90;;;;;;5069685;28;20272;-69
2021/05/21 04:27:37;;;;;;;1.30;1.00;;;15.90;99.90;;;;;;5071242;28;20233;-69
2021/05/21 04:30:07;;;;;;;1.98;0.82;;;15.90;99.90;;;;;;5070905;28;20190;-69
2021/05/21 04:32:33;;;;;;;2.30;0.80;;;15.90;99.90;;;;;;5059488;28;20210;-69
2021/05/21 04:34:59;;;;;;;1.20;0.98;;;16.00;99.90;;;;;;5051116;28;20704;-69
2021/05/21 04:37:25;;;;;;;1.00;0.90;;;15.90;99.90;;;;;;5069399;28;20207;-69
2021/05/21 04:39:52;;;;;;;1.20;0.98;;;15.90;99.90;;;;;;5071116;28;20198;-69
2021/05/21 04:42:18;;;;;;;0.98;0.77;;;15.90;99.90;;;;;;5071117;28;20221;-69
2021/05/21 04:44:44;;;;;;;1.60;1.00;;;15.90;99.90;;;;;;5061441;28;20187;-69
2021/05/21 04:47:11;;;;;;;1.55;0.93;;;15.90;99.90;;;;;;5074294;28;20229;-69
2021/05/21 04:49:37;;;;;;;1.77;0.90;;;15.90;99.90;;;;;;5074978;28;20259;-69
2021/05/21 04:52:06;;;;;;;2.13;0.90;;;15.90;99.90;;;;;;5072798;28;20201;-69
2021/05/21 04:54:34;;;;;;;2.03;1.35;;;15.90;99.90;;;;;;5054708;28;20309;-69
2021/05/21 04:57:00;;;;;;;1.58;1.20;;;15.90;99.90;;;;;;5054495;28;20202;-70
2021/05/21 04:59:26;;;;;;;1.52;1.05;;;15.90;99.90;;;;;;5054614;28;20207;-70
2021/05/21 05:01:53;;;;;;;1.10;0.90;;;15.90;99.90;;;;;;5060749;28;20552;-70
2021/05/21 05:04:20;;;;;;;2.55;0.77;;;15.90;99.90;;;;;;5058798;28;20194;-70
2021/05/21 05:06:46;;;;;;;1.75;0.90;;;15.90;99.90;;;;;;5074466;28;20202;-69
2021/05/21 05:09:12;;;;;;;2.53;0.93;;;15.90;99.90;;;;;;5074272;28;20205;-69
2021/05/21 05:11:41;;;;;;;3.42;1.35;;;15.90;99.90;;;;;;5066108;28;20531;-69
2021/05/21 05:14:07;;;;;;;2.95;1.10;;;15.90;99.90;;;;;;5069091;28;20237;-69
2021/05/21 05:16:33;;;;;;;1.25;0.90;;;15.90;99.90;;;;;;5069838;28;20195;-69
2021/05/21 05:19:00;;;;;;;1.48;1.05;;;15.90;99.90;;;;;;5054750;28;20195;-69
2021/05/21 05:21:27;;;;;;;1.90;1.08;;;16.00;99.90;;;;;;5070509;28;20234;-69
2021/05/21 05:23:55;;;;;;;1.60;1.00;;;15.90;99.90;;;;;;5069557;28;20191;-71
2021/05/21 05:26:21;;;;;;;1.08;0.85;;;15.90;99.90;;;;;;5074059;28;20630;-71
2021/05/21 05:28:49;;;;;;;1.20;1.00;;;15.90;99.90;;;;;;5073239;28;20202;-69
2021/05/21 05:31:15;;;;;;;1.25;0.80;;;15.90;99.90;;;;;;5072337;28;20289;-69
2021/05/21 05:33:42;;;;;;;1.90;1.13;;;15.90;99.90;;;;;;5072680;28;20205;-70
2021/05/21 05:36:08;;;;;;;2.38;0.90;;;15.90;99.90;;;;;;5072191;28;20279;-69
2021/05/21 05:38:35;;;;;;;1.92;1.15;;;16.00;99.90;;;;;;5071080;28;20200;-69
2021/05/21 05:41:02;;;;;;;2.15;1.00;;;16.00;99.90;;;;;;5073909;28;20201;-69
2021/05/21 05:43:28;;;;;;;3.45;1.58;;;16.00;99.90;;;;;;5073195;28;20194;-69
2021/05/21 05:45:54;;;;;;;1.25;1.05;;;16.00;99.90;;;;;;5073309;28;20585;-69
2021/05/21 05:48:21;;;;;;;1.52;1.00;;;16.10;99.90;;;;;;5065975;28;20214;-70
2021/05/21 05:50:47;;;;;;;1.83;1.00;;;16.10;99.90;;;;;;5053794;28;20203;-70
2021/05/21 05:53:13;;;;;;;1.00;0.80;;;16.20;99.90;;;;;;5058344;28;20686;-70
2021/05/21 05:55:41;;;;;;;3.60;1.10;;;16.40;99.90;;;;;;5059121;28;20700;-70
2021/05/21 05:58:08;;;;;;;3.28;1.30;;;16.50;99.90;;;;;;5072281;28;20208;-70
2021/05/21 06:00:34;;;;;;;7.53;1.20;;;16.70;99.90;;;;;;5071446;28;20230;-70
2021/05/21 06:03:05;;;;;;;1.60;1.00;;;16.70;99.90;;;;;;5073547;28;20202;-70
2021/05/21 06:05:33;;;;;;;2.05;0.93;;;16.80;99.90;;;;;;5072332;28;20194;-70
2021/05/21 06:08:01;;;;;;;1.45;0.90;;;16.80;99.90;;;;;;5060075;28;20210;-70
2021/05/21 06:10:27;;;;;;;3.30;1.10;;;16.90;99.90;;;;;;5053567;28;20294;-70
2021/05/21 06:13:01;;;;;;;1.98;0.98;;;16.90;99.90;;;;;;5069893;28;20198;-70
2021/05/21 06:15:28;;;;;;;1.70;0.93;;;16.80;99.90;;;;;;5062351;28;20241;-69
2021/05/21 06:17:55;;;;;;;1.88;1.00;;;16.80;99.90;;;;;;5053337;28;20199;-69
2021/05/21 06:20:21;;;;;;;3.05;0.90;;;16.70;99.90;;;;;;5072200;28;20233;-69
2021/05/21 06:22:47;;;;;;;3.55;1.00;;;16.70;99.90;;;;;;5072661;28;20225;-69
2021/05/21 06:25:16;;;;;;;2.78;1.10;;;16.70;99.90;;;;;;5056057;28;20202;-71
2021/05/21 06:27:43;;;;;;;1.73;0.93;;;16.70;99.90;;;;;;5050129;28;20202;-69
2021/05/21 06:30:12;;;;;;;2.58;0.98;;;16.60;99.90;;;;;;5070862;28;20201;-69
2021/05/21 06:32:39;;;;;;;1.90;1.10;;;16.60;99.90;;;;;;5070605;28;20305;-69
2021/05/21 06:35:07;;;;;;;2.70;1.10;;;16.50;99.90;;;;;;5071631;28;20276;-70
2021/05/21 06:37:34;;;;;;;1.20;0.90;;;16.50;99.90;;;;;;5066790;28;20202;-70
2021/05/21 06:40:00;;;;;;;2.13;1.05;;;16.40;99.90;;;;;;5070137;28;20841;-70
2021/05/21 06:42:26;;;;;;;1.85;1.00;;;16.50;99.90;;;;;;5082166;28;20201;-70
2021/05/21 06:44:52;;;;;;;5.30;1.33;;;16.50;99.90;;;;;;5068799;28;20201;-69
2021/05/21 06:47:19;;;;;;;2.20;1.10;;;16.50;99.90;;;;;;5068171;28;20210;-70
2021/05/21 06:49:47;;;;;;;1.83;1.00;;;16.70;99.90;;;;;;5061626;28;20285;-70
2021/05/21 06:52:13;;;;;;;3.03;1.65;;;16.90;99.90;;;;;;5069583;28;20224;-70
2021/05/21 06:54:40;;;;;;;3.53;1.63;;;17.10;99.90;;;;;;5071327;28;20213;-70
2021/05/21 06:57:06;;;;;;;4.20;1.05;;;17.20;99.90;;;;;;5071083;28;20646;-70
2021/05/21 06:59:32;;;;;;;4.60;1.10;;;17.20;99.90;;;;;;5064412;28;20204;-71
2021/05/21 07:01:58;;;;;;;1.48;1.00;;;17.20;99.90;;;;;;5069420;28;20213;-71
2021/05/21 07:04:25;;;;;;;6.47;2.00;;;17.30;99.90;;;;;;5071103;28;20198;-71
2021/05/21 07:06:51;;;;;;;1.15;0.85;;;17.30;99.90;;;;;;5060413;28;20235;-72
2021/05/21 07:09:18;;;;;;;1.60;1.08;;;17.30;99.90;;;;;;5069235;28;20255;-72
2021/05/21 07:11:44;;;;;;;3.00;1.27;;;17.20;99.90;;;;;;5059181;28;20206;-72
2021/05/21 07:14:10;;;;;;;3.17;1.02;;;17.20;99.90;;;;;;5054451;28;20190;-72
2021/05/21 07:16:37;;;;;;;1.67;1.10;;;17.20;99.90;;;;;;5069529;28;20206;-72
2021/05/21 07:19:03;;;;;;;2.47;1.10;;;17.10;99.90;;;;;;5070596;28;20197;-72
2021/05/21 07:21:30;;;;;;;1.40;0.95;;;17.10;99.90;;;;;;5061579;28;20229;-72
2021/05/21 07:23:56;;;;;;;3.30;1.20;;;17.20;99.90;;;;;;5070592;28;20683;-72
2021/05/21 07:26:24;;;;;;;2.88;1.45;;;17.20;99.90;;;;;;5070769;28;20186;-72
2021/05/21 07:28:53;;;;;;;3.63;1.38;;;17.10;99.90;;;;;;5056094;28;20283;-72
2021/05/21 07:31:19;;;;;;;4.40;1.85;;;17.10;99.90;;;;;;5068761;28;20194;-72
2021/05/21 07:33:45;;;;;;;4.13;1.50;;;17.10;99.90;;;;;;5070583;28;20195;-71
2021/05/21 07:36:11;;;;;;;2.10;1.50;;;17.20;99.90;;;;;;5065181;28;20225;-71
2021/05/21 07:38:38;;;;;;;2.28;1.92;;;17.30;99.90;;;;;;5050422;28;20199;-71
2021/05/21 07:41:04;;;;;;;3.85;1.17;;;17.40;99.80;;;;;;5066375;28;20565;-71
2021/05/21 07:43:31;;;;;;;3.30;1.13;;;17.60;99.30;;;;;;5070274;28;20881;-71
2021/05/21 07:45:57;;;;;;;2.28;1.23;;;17.70;98.80;;;;;;5052237;28;20202;-71
2021/05/21 07:48:26;;;;;;;3.13;1.25;;;17.70;98.70;;;;;;5071508;28;20225;-71
2021/05/21 07:50:52;;;;;;;2.15;1.10;;;17.70;98.60;;;;;;5069843;28;20233;-71
2021/05/21 07:53:18;;;;;;;2.10;1.38;;;17.70;98.70;;;;;;5070838;28;20686;-71
2021/05/21 07:55:45;;;;;;;3.17;1.13;;;17.60;98.80;;;;;;5070098;28;20221;-71
2021/05/21 07:58:13;;;;;;;2.25;1.00;;;17.60;98.90;;;;;;5070975;28;20679;-71
2021/05/21 08:00:39;;;;;;;5.10;1.85;;;17.50;98.90;;;;;;5058990;28;20239;-71
2021/05/21 08:03:06;;;;;;;3.25;1.20;;;17.50;99.20;;;;;;5070664;28;20198;-71
2021/05/21 08:05:32;;;;;;;4.05;1.05;;;17.50;99.10;;;;;;5071343;28;20208;-71
2021/05/21 08:07:58;;;;;;;3.95;1.30;;;17.50;99.00;;;;;;5051132;28;20716;-71
2021/05/21 08:10:25;;;;;;;3.00;1.20;;;17.50;99.40;;;;;;5070695;28;20195;-71
2021/05/21 08:12:52;;;;;;;5.25;1.58;;;17.50;99.30;;;;;;5065576;28;20190;-71
2021/05/21 08:15:18;;;;;;;3.55;1.30;;;17.60;99.00;;;;;;5061068;28;20221;-71
2021/05/21 08:17:44;;;;;;;2.22;1.15;;;17.60;99.00;;;;;;5069732;28;20194;-71
2021/05/21 08:20:12;;;;;;;3.20;1.33;;;17.70;98.80;;;;;;5068982;28;20230;-72
2021/05/21 08:22:38;;;;;;;3.38;2.20;;;17.60;98.60;;;;;;5073946;28;20197;-72
2021/05/21 08:25:06;;;;;;;3.75;1.40;;;17.60;98.60;;;;;;5074452;28;20201;-72
2021/05/21 08:27:32;;;;;;;2.38;1.30;;;17.60;98.60;;;;;;5072879;28;20206;-72
2021/05/21 08:30:00;;;;;;;1.75;1.20;;;17.60;98.70;;;;;;5074136;28;20194;-72
2021/05/21 08:32:26;;;;;;;3.38;1.55;;;17.60;98.50;;;;;;5074070;28;20216;-72
2021/05/21 08:34:53;;;;;;;2.00;1.10;;;17.70;98.20;;;;;;5074125;28;20228;-72
2021/05/21 08:37:19;;;;;;;3.53;1.60;;;17.80;97.80;;;;;;5060483;28;20202;-71
2021/05/21 08:39:45;;;;;;;9.48;1.55;;;17.80;97.70;;;;;;5069035;28;20701;-71
2021/05/21 08:42:13;;;;;;;4.32;1.60;;;17.80;97.50;;;;;;5062861;28;20199;-70
2021/05/21 08:44:45;;;;;;;2.88;1.20;;;17.80;97.50;;;;;;5073658;28;20194;-71
2021/05/21 08:47:12;;;;;;;3.35;1.40;;;17.80;97.40;;;;;;5070277;28;20239;-70
2021/05/21 08:49:39;;;;;;;2.33;1.35;;;17.70;97.30;;;;;;5068437;28;20535;-71
2021/05/21 08:52:05;;;;;;;2.22;1.10;;;17.70;97.30;;;;;;5073234;28;20212;-70
2021/05/21 08:54:35;;;;;;;4.00;1.35;;;17.70;97.40;;;;;;5072297;28;20226;-71
2021/05/21 08:57:05;;;;;;;6.00;1.20;;;17.60;97.70;;;;;;5073160;28;20205;-70
2021/05/21 08:59:31;;;;;;;2.88;1.27;;;17.60;98.20;;;;;;5065926;28;20558;-71
2021/05/21 09:01:58;;;;;;;5.45;2.28;;;17.70;98.00;;;;;;5072120;28;20194;-69
2021/05/21 09:04:25;;;;;;;2.03;1.30;;;17.90;98.00;;;;;;5073238;28;20236;-70
2021/05/21 09:06:51;;;;;;;2.55;1.70;;;18.00;97.50;;;;;;5073310;28;20256;-70
2021/05/21 09:09:19;;;;;;;3.58;1.60;;;18.20;96.90;;;;;;5072940;28;20213;-71
2021/05/21 09:11:46;;;;;;;2.10;1.27;;;18.40;96.60;;;;;;5068896;28;20194;-71
2021/05/21 09:14:14;;;;;;;3.67;1.70;;;18.50;95.90;;;;;;5072999;28;20650;-71
2021/05/21 09:16:42;;;;;;;4.55;1.58;;;18.60;95.00;;;;;;5071473;28;20218;-71
2021/05/21 09:19:14;;;;;;;6.47;2.10;;;18.60;94.90;;;;;;5072990;28;20216;-71
2021/05/21 09:21:57;;;;;;;3.65;1.60;;;18.60;94.60;;;;;;5072922;28;20217;-70
2021/05/21 09:24:27;;;;;;;4.60;1.80;;;18.60;94.60;;;;;;5061650;28;20194;-71
2021/05/21 09:26:55;;;;;;;3.40;1.40;;;18.60;93.90;;;;;;5072902;28;20202;-70
2021/05/21 09:29:40;;;;;;;5.85;2.10;;;18.50;93.90;;;;;;5071309;28;20630;-70
2021/05/21 09:32:27;;;;;;;8.63;1.95;;;18.40;93.80;;;;;;5064841;28;20194;-70
2021/05/21 09:35:12;;;;;;;2.30;1.40;;;18.40;93.80;;;;;;5052944;28;20214;-70
2021/05/21 09:37:44;;;;;;;3.05;1.70;;;18.30;93.20;;;;;;5062695;28;20212;-68
2021/05/21 09:40:17;;;;;;;3.50;1.35;;;18.30;93.90;;;;;;5060630;28;20638;-70
2021/05/21 09:42:48;;;;;;;3.60;1.90;;;18.40;93.00;;;;;;5071934;28;20205;-70
2021/05/21 09:45:21;;;;;;;3.42;1.50;;;18.50;92.20;;;;;;5071270;28;20190;-69
2021/05/21 09:47:49;;;;;;;6.55;1.40;;;18.50;92.50;;;;;;5072879;28;20517;-70
2021/05/21 09:50:15;;;;;;;5.93;2.40;;;18.60;92.40;;;;;;5063147;28;20199;-72
2021/05/21 09:52:45;;;;;;;3.90;1.58;;;18.50;91.70;;;;;;5071213;28;20194;-70
2021/05/21 09:55:11;;;;;;;5.45;1.60;;;18.50;91.20;;;;;;5061865;28;20275;-70
2021/05/21 09:57:37;;;;;;;5.55;1.80;;;18.50;90.10;;;;;;5070160;28;20263;-69
2021/05/21 10:00:05;;;;;;;7.38;1.90;;;18.40;90.40;;;;;;5070412;28;20233;-69
2021/05/21 10:02:32;;;;;;;6.28;1.88;;;18.40;90.60;;;;;;5071268;28;20201;-70
2021/05/21 10:05:00;;;;;;;7.47;1.77;;;18.50;90.70;;;;;;5066540;28;20201;-69
2021/05/21 10:07:26;;;;;;;7.43;2.08;;;18.50;89.40;;;;;;5064474;28;20206;-68
2021/05/21 10:09:54;;;;;;;3.55;1.55;;;18.60;90.00;;;;;;5071910;28;20208;-68
2021/05/21 10:12:21;;;;;;;4.55;1.45;;;18.60;87.60;;;;;;5068305;28;20215;-68
2021/05/21 10:14:50;;;;;;;5.35;1.50;;;18.60;89.20;;;;;;5067092;28;20617;-69
2021/05/21 10:17:18;;;;;;;5.28;1.83;;;18.60;87.20;;;;;;5069557;28;20573;-69
2021/05/21 10:19:45;;;;;;;3.33;1.30;;;18.60;87.50;;;;;;5062393;28;20198;-69
2021/05/21 10:22:14;;;;;;;9.88;1.90;;;18.60;85.80;;;;;;5071580;28;20190;-69
2021/05/21 10:24:44;;;;;;;6.57;1.50;;;18.60;84.90;;;;;;5066503;28;20205;-67
2021/05/21 10:27:18;;;;;;;3.40;1.70;;;18.60;85.70;;;;;;5069733;28;20256;-70
2021/05/21 10:29:50;;;;;;;5.80;2.10;;;18.60;84.60;;;;;;5052429;28;20178;-69
2021/05/21 10:32:17;;;;;;;4.95;1.20;;;18.60;85.20;;;;;;5056096;28;20595;-69
2021/05/21 10:34:47;;;;;;;5.22;1.55;;;18.60;84.00;;;;;;5070437;28;20201;-70
2021/05/21 10:37:26;;;;;;;5.15;1.60;;;18.60;83.70;;;;;;5071654;28;20206;-70
2021/05/21 10:40:01;;;;;;;3.80;1.70;;;18.60;84.00;;;;;;5062204;28;20202;-70
2021/05/21 10:42:28;;;;;;;5.28;1.92;;;18.60;83.30;;;;;;5071459;28;20208;-69
2021/05/21 10:45:07;;;;;;;5.63;1.75;;;18.60;82.40;;;;;;5069664;28;20198;-70
2021/05/21 10:47:37;;;;;;;3.30;1.85;;;18.60;82.80;;;;;;5070215;28;20226;-69
2021/05/21 10:50:09;;;;;;;4.22;1.80;;;18.60;80.80;;;;;;5071528;28;20801;-70
2021/05/21 10:52:52;;;;;;;5.65;1.70;;;18.60;81.50;;;;;;5061617;28;20198;-71
2021/05/21 10:55:20;;;;;;;4.35;1.38;;;18.50;81.40;;;;;;5070966;28;20202;-69
2021/05/21 10:57:59;;;;;;;4.47;1.60;;;18.50;81.30;;;;;;5070717;28;20224;-69
2021/05/21 11:00:26;;;;;;;4.05;1.25;;;18.50;81.00;;;;;;5068345;28;20629;-69
2021/05/21 11:02:53;;;;;;;5.03;1.65;;;18.50;81.60;;;;;;5071478;28;20198;-71
2021/05/21 11:05:22;;;;;;;8.13;2.70;;;18.60;81.40;;;;;;5070560;28;20204;-70
2021/05/21 11:07:55;;;;;;;4.80;1.58;;;18.60;82.50;;;;;;5071314;28;20202;-70
2021/05/21 11:10:41;;;;;;;9.90;1.40;;;18.60;82.10;;;;;;5070120;28;20228;-71
2021/05/21 11:13:11;;;;;;;7.43;2.08;;;18.50;76.10;;;;;;5070849;28;20202;-70
2021/05/21 11:15:39;;;;;;;5.20;2.40;;;18.20;68.90;;;;;;5070785;28;20322;-70
2021/05/21 11:18:27;;;;;;;11.98;2.20;;;18.40;72.80;;;;;;5060526;28;20210;-70
2021/05/21 11:20:55;;;;;;;10.88;1.88;;;18.50;74.10;;;;;;5066208;28;20221;-70
2021/05/21 11:23:27;;;;;;;8.82;2.42;;;18.60;74.60;;;;;;5070379;28;20589;-71
2021/05/21 11:26:05;;;;;;;5.20;1.50;;;18.60;74.80;;;;;;5051120;28;20194;-70
2021/05/21 11:28:39;;;;;;;6.60;1.80;;;18.60;75.70;;;;;;5060201;28;20634;-71
2021/05/21 11:31:09;;;;;;;2.67;1.60;;;18.60;76.20;;;;;;5071059;28;20213;-72
2021/05/21 11:33:35;;;;;;;10.35;3.45;;;18.60;76.00;;;;;;5070809;28;20197;-71
2021/05/21 11:36:04;;;;;;;8.30;1.83;;;18.60;76.20;;;;;;5058805;28;20217;-71
2021/05/21 11:38:30;;;;;;;5.20;2.10;;;18.60;76.20;;;;;;5050629;28;20651;-70
2021/05/21 11:40:57;;;;;;;6.88;1.60;;;18.60;76.40;;;;;;5050780;28;20202;-70
2021/05/21 11:43:23;;;;;;;6.15;2.35;;;18.60;77.10;;;;;;5050998;28;20516;-71
2021/05/21 11:45:52;;;;;;;5.82;1.98;;;18.60;77.30;;;;;;5050736;28;20202;-71
2021/05/21 11:48:31;;;;;;;7.32;2.05;;;18.60;77.00;;;;;;5069561;28;20198;-71
2021/05/21 11:50:58;;;;;;;7.97;1.92;;;18.60;77.00;;;;;;5070763;28;20216;-71
2021/05/21 11:53:25;;;;;;;8.45;2.40;;;18.60;77.10;;;;;;5069990;28;20739;-70
2021/05/21 11:55:51;;;;;;;2.75;1.35;;;18.60;77.10;;;;;;5051960;28;20233;-71
2021/05/21 11:58:25;;;;;;;7.35;1.65;;;18.60;76.30;;;;;;5058932;28;20210;-69
2021/05/21 12:00:57;;;;;;;5.68;1.40;;;18.60;76.00;;;;;;5062990;28;20198;-68
2021/05/21 12:03:23;;;;;;;5.78;1.65;;;18.60;75.20;;;;;;5070100;28;20204;-70
2021/05/21 12:05:49;;;;;;;4.78;1.92;;;18.70;76.10;;;;;;5070713;28;20569;-70
2021/05/21 12:08:16;;;;;;;6.93;1.90;;;18.70;76.50;;;;;;5070452;28;20256;-70
2021/05/21 12:10:54;;;;;;;6.95;2.00;;;18.60;75.80;;;;;;5061375;28;20194;-71
2021/05/21 12:13:20;;;;;;;8.07;2.10;;;18.60;76.30;;;;;;5052288;28;20264;-70
2021/05/21 12:15:46;;;;;;;6.10;2.00;;;18.60;76.60;;;;;;5058338;28;20218;-70
2021/05/21 12:18:13;;;;;;;9.38;2.95;;;18.60;76.50;;;;;;5066809;28;20194;-69
2021/05/21 12:20:39;;;;;;;5.93;2.40;;;18.60;77.10;;;;;;5069536;28;20807;-69
2021/05/21 12:23:07;;;;;;;6.32;2.33;;;18.60;75.90;;;;;;5063084;28;20199;-69
2021/05/21 12:25:35;;;;;;;5.07;2.88;;;18.60;76.00;;;;;;5065067;28;20221;-69
2021/05/21 12:28:03;;;;;;;4.10;2.20;;;18.60;76.30;;;;;;5069594;28;20248;-69
2021/05/21 12:30:30;;;;;;;4.57;2.17;;;18.70;76.10;;;;;;5069427;28;20198;-70
2021/05/21 12:32:58;;;;;;;4.70;2.63;;;18.70;76.30;;;;;;5069131;28;20230;-71
2021/05/21 12:35:36;;;;;;;5.72;2.15;;;18.70;75.80;;;;;;5050293;28;20218;-71
2021/05/21 12:38:03;;;;;;;7.90;2.03;;;18.30;61.70;;;;;;5050254;28;20198;-71
2021/05/21 12:40:30;;;;;;;7.32;2.15;;;18.40;64.30;;;;;;5060979;28;20669;-71
2021/05/21 12:42:56;;;;;;;11.52;2.28;;;18.50;66.90;;;;;;5069656;28;20610;-71
2021/05/21 12:45:22;;;;;;;7.53;2.58;;;18.60;67.90;;;;;;5070065;28;20194;-71
2021/05/21 12:47:50;;;;;;;8.57;2.60;;;18.70;68.40;;;;;;5068679;28;20198;-72